Time;durP1;ratioP1;P1;durP2;ratioP2;P2;SDS_P1;SDS_P2;PMS_P1;PMS_P2;Temp;Humidity;BMP_temperature;BMP_pressure;BME280_temperature;BME280_humidity;BME280_pressure;Samples;Min_cycle;Max_cycle;Signal;HPM_P1;HPM_P2
2023/10/03 00:01:36;;;;;;;;;14.33;14.33;;;;;24.20;59.43;100889.94;5070547;28;45432;-73
2023/10/03 00:04:02;;;;;;;;;16.00;14.33;;;;;24.44;59.29;100937.50;5043592;28;45409;-73
2023/10/03 00:06:28;;;;;;;;;14.00;13.67;;;;;24.41;59.93;100938.44;5078112;28;45398;-73
2023/10/03 00:08:54;;;;;;;;;15.33;14.00;;;;;24.36;59.64;100933.19;5076623;28;45428;-72
2023/10/03 00:11:22;;;;;;;;;19.00;15.33;;;;;24.32;60.16;100936.84;5047980;28;45387;-73
2023/10/03 00:13:50;;;;;;;;;17.00;16.33;;;;;24.29;59.76;100936.94;5040277;28;46230;-73
2023/10/03 00:16:17;;;;;;;;;15.33;14.67;;;;;24.31;59.42;100936.88;5077780;28;45496;-73
2023/10/03 00:18:43;;;;;;;;;12.00;12.00;;;;;24.28;59.53;100937.81;5079047;27;45434;-73
2023/10/03 00:21:09;;;;;;;;;14.00;13.33;;;;;24.23;59.70;100934.34;5069629;28;45448;-74
2023/10/03 00:23:35;;;;;;;;;16.67;15.33;;;;;24.17;59.65;100930.06;5063450;28;46129;-73
2023/10/03 00:26:01;;;;;;;;;17.00;15.33;;;;;24.10;59.79;100931.06;5059557;28;45435;-72
2023/10/03 00:28:29;;;;;;;;;16.00;15.00;;;;;24.07;59.90;100931.13;5077498;27;45317;-76
2023/10/03 00:30:56;;;;;;;;;13.00;13.00;;;;;24.08;60.04;100940.03;5069603;28;45362;-73
2023/10/03 00:33:25;;;;;;;;;15.33;15.00;;;;;23.98;60.54;100940.19;5053438;28;46187;-73
2023/10/03 00:35:55;;;;;;;;;16.67;16.00;;;;;23.92;60.47;100934.09;5077169;28;45596;-72
2023/10/03 00:38:21;;;;;;;;;15.33;13.67;;;;;23.87;59.98;100926.16;5078071;28;45301;-73
2023/10/03 00:40:49;;;;;;;;;19.33;16.33;;;;;23.90;60.08;100936.78;5078038;27;45307;-73
2023/10/03 00:43:15;;;;;;;;;14.67;14.00;;;;;23.67;60.39;100920.31;5045557;28;46152;-78
2023/10/03 00:45:42;;;;;;;;;14.33;12.67;;;;;23.62;61.11;100920.41;5075979;28;45430;-77
2023/10/03 00:48:08;;;;;;;;;17.00;14.00;;;;;23.52;61.49;100933.00;5052992;28;45500;-78
2023/10/03 00:50:35;;;;;;;;;15.67;13.33;;;;;23.52;60.97;100933.00;5069141;28;45299;-77
2023/10/03 00:53:09;;;;;;;;;13.33;13.33;;;;;23.45;60.94;100925.13;5056535;28;47037;-78
2023/10/03 00:55:37;;;;;;;;;16.00;15.67;;;;;23.28;62.31;100917.41;5066681;28;45668;-77
2023/10/03 01:00:39;;;;;;;;;17.67;15.33;;;;;23.04;62.90;100930.25;5059049;28;45628;-78
2023/10/03 01:03:06;;;;;;;;;12.67;11.67;;;;;22.98;62.69;100917.00;5039995;28;45417;-73
2023/10/03 01:05:36;;;;;;;;;13.67;13.00;;;;;23.08;62.43;100926.63;5053396;28;45308;-73
2023/10/03 01:08:04;;;;;;;;;15.50;15.50;;;;;23.11;62.52;100923.03;5061124;28;45356;-73
2023/10/03 01:10:32;;;;;;;;;15.67;15.00;;;;;23.09;62.34;100928.38;5070497;28;45361;-77
2023/10/03 01:13:08;;;;;;;;;14.00;14.00;;;;;23.10;61.83;100923.91;5057872;28;46190;-73
2023/10/03 01:15:35;;;;;;;;;17.00;16.33;;;;;23.06;61.85;100911.56;5074534;28;45657;-77
2023/10/03 01:18:01;;;;;;;;;13.00;12.33;;;;;23.06;61.90;100914.22;5071700;28;45249;-75
2023/10/03 01:20:40;;;;;;;;;13.67;13.67;;;;;23.00;61.42;100904.53;5057877;28;45284;-73
2023/10/03 01:23:06;;;;;;;;;14.00;13.67;;;;;22.99;61.58;100902.75;5051942;28;46391;-73
2023/10/03 01:25:34;;;;;;;;;17.33;16.67;;;;;23.04;62.13;100924.91;5076825;28;45664;-74
2023/10/03 01:27:59;;;;;;;;;16.33;15.67;;;;;23.00;61.58;100913.41;5050948;28;45257;-78
2023/10/03 01:30:26;;;;;;;;;15.00;14.00;;;;;23.00;61.70;100913.41;5070331;28;45419;-78
2023/10/03 01:32:56;;;;;;;;;16.67;15.00;;;;;23.01;61.56;100922.25;5076598;28;45418;-77
2023/10/03 01:35:22;;;;;;;;;18.67;16.00;;;;;22.97;61.67;100909.88;5062613;28;45447;-74
2023/10/03 01:37:57;;;;;;;;;17.33;16.00;;;;;22.99;61.54;100911.63;5068614;28;45701;-78
2023/10/03 01:40:22;;;;;;;;;16.67;15.33;;;;;22.94;61.60;100910.81;5057868;28;45363;-74
2023/10/03 01:42:48;;;;;;;;;16.00;14.67;;;;;22.94;61.23;100920.56;5041762;28;46383;-73
2023/10/03 01:45:17;;;;;;;;;18.00;16.00;;;;;22.94;61.83;100921.47;5055893;28;45556;-72
2023/10/03 01:47:49;;;;;;;;;14.67;14.67;;;;;22.93;61.95;100918.84;5064450;28;45482;-73
2023/10/03 01:50:20;;;;;;;;;14.33;13.67;;;;;22.89;61.80;100914.47;5054721;28;45759;-73
2023/10/03 01:52:47;;;;;;;;;17.00;15.00;;;;;22.87;62.13;100924.25;5076313;28;45358;-73
2023/10/03 01:55:16;;;;;;;;;16.00;15.67;;;;;22.80;62.27;100916.34;5058422;28;45674;-73
2023/10/03 01:57:42;;;;;;;;;13.67;13.67;;;;;22.80;62.19;100921.69;5077750;28;45478;-73
2023/10/03 02:00:28;;;;;;;;;15.33;14.33;;;;;22.70;62.25;100904.09;5058844;28;45577;-73
2023/10/03 02:03:01;;;;;;;;;13.33;13.33;;;;;22.73;62.50;100921.78;5056892;28;45468;-73
2023/10/03 02:05:27;;;;;;;;;16.00;15.67;;;;;22.71;62.85;100924.47;5076205;28;45500;-73
2023/10/03 02:10:39;;;;;;;;;15.25;14.50;;;;;22.62;63.13;100927.25;5072582;28;46683;-76
2023/10/03 02:13:14;;;;;;;;;15.33;15.00;;;;;22.44;63.54;100939.94;5076308;28;45468;-73
2023/10/03 02:15:40;;;;;;;;;11.67;11.00;;;;;22.33;63.41;100941.84;5073859;28;45486;-73
2023/10/03 02:18:09;;;;;;;;;16.00;15.67;;;;;22.27;63.65;100933.06;5062593;28;45499;-77
2023/10/03 02:20:47;;;;;;;;;16.25;15.00;;;;;22.30;64.16;100944.50;5062559;28;45240;-77
2023/10/03 02:23:17;;;;;;;;;15.00;14.00;;;;;22.28;63.87;100948.97;5072162;28;45268;-73
2023/10/03 02:25:44;;;;;;;;;16.00;14.00;;;;;22.33;64.09;100946.28;5038480;28;45474;-72
2023/10/03 02:28:10;;;;;;;;;16.33;15.00;;;;;22.43;63.79;100954.13;5056397;28;45447;-76
2023/10/03 02:30:36;;;;;;;;;17.67;17.00;;;;;22.52;63.54;100958.47;5056923;28;45375;-77
2023/10/03 02:33:13;;;;;;;;;14.75;14.00;;;;;22.50;63.77;100948.72;5053561;28;45643;-77
2023/10/03 02:35:43;;;;;;;;;18.00;16.67;;;;;22.62;63.43;100961.88;5044375;28;45280;-76
2023/10/03 02:38:14;;;;;;;;;18.25;16.50;;;;;22.74;63.47;100952.84;5058238;28;45322;-76
2023/10/03 02:40:40;;;;;;;;;15.00;14.67;;;;;22.72;63.37;100944.88;5061088;28;45544;-76
2023/10/03 02:43:06;;;;;;;;;16.33;15.33;;;;;22.77;63.49;100950.13;5074967;28;46150;-77
2023/10/03 02:45:32;;;;;;;;;15.33;13.67;;;;;22.72;63.06;100950.22;5076105;28;45464;-73
2023/10/03 02:48:13;;;;;;;;;15.00;14.33;;;;;22.82;62.90;100953.63;5064617;28;45309;-73
2023/10/03 02:50:41;;;;;;;;;16.33;15.00;;;;;22.96;62.85;100962.31;5057271;28;45537;-73
2023/10/03 02:53:12;;;;;;;;;15.67;14.33;;;;;22.82;63.09;100941.19;5055924;28;45625;-73
2023/10/03 02:55:40;;;;;;;;;15.00;14.33;;;;;22.96;62.62;100954.31;5056129;28;45496;-77
2023/10/03 02:58:05;;;;;;;;;17.00;15.67;;;;;22.94;62.61;100952.53;5070975;28;45438;-73
2023/10/03 03:00:33;;;;;;;;;12.67;12.67;;;;;23.00;62.34;100949.81;5072528;28;45494;-73
2023/10/03 03:02:58;;;;;;;;;15.33;13.33;;;;;23.01;62.56;100951.56;5069180;28;45445;-73
2023/10/03 03:05:35;;;;;;;;;13.67;13.67;;;;;23.06;62.53;100956.84;5059455;28;45798;-73
2023/10/03 03:08:07;;;;;;;;;14.00;13.67;;;;;23.08;62.41;100944.38;5059744;28;45520;-74
2023/10/03 03:10:33;;;;;;;;;20.25;17.25;;;;;23.07;61.90;100946.16;5060163;28;45335;-77
2023/10/03 03:13:01;;;;;;;;;16.00;14.67;;;;;23.15;62.58;100960.25;5059622;28;45412;-77
2023/10/03 03:15:28;;;;;;;;;16.33;15.00;;;;;23.06;62.79;100959.50;5070007;28;45544;-77
2023/10/03 03:17:53;;;;;;;;;15.67;14.00;;;;;23.09;63.00;100970.13;5067806;28;45465;-76
2023/10/03 03:20:29;;;;;;;;;14.33;14.00;;;;;23.08;63.05;100965.69;5059429;28;45553;-77
2023/10/03 03:23:00;;;;;;;;;14.33;14.33;;;;;22.99;62.48;100953.38;5064885;28;46256;-77
2023/10/03 03:25:36;;;;;;;;;14.67;13.00;;;;;22.99;62.47;100962.25;5061207;28;45528;-77
2023/10/03 03:28:02;;;;;;;;;14.67;13.33;;;;;23.02;62.20;100977.34;5079123;28;45474;-74
2023/10/03 03:32:54;;;;;;;;;12.33;12.33;;;;;23.09;62.05;100981.66;5079328;28;45849;-77
2023/10/03 03:35:24;;;;;;;;;11.67;11.67;;;;;23.14;61.89;100982.50;5078931;28;45488;-76
2023/10/03 03:37:57;;;;;;;;;15.00;14.00;;;;;23.15;61.45;100980.69;5061121;28;45456;-75
2023/10/03 03:40:33;;;;;;;;;10.67;10.00;;;;;23.22;61.28;100982.38;5078192;28;45440;-75
2023/10/03 03:43:01;;;;;;;;;12.00;12.00;;;;;23.22;62.00;100988.59;5064569;28;45605;-74
2023/10/03 03:45:27;;;;;;;;;13.00;13.00;;;;;23.17;61.77;100986.88;5079027;28;45465;-77
2023/10/03 03:47:54;;;;;;;;;11.00;11.00;;;;;23.11;61.88;100985.19;5077769;28;45366;-77
2023/10/03 03:50:23;;;;;;;;;15.00;13.33;;;;;23.13;62.12;100987.84;5078010;27;45892;-77
2023/10/03 03:52:52;;;;;;;;;11.67;11.00;;;;;23.21;61.99;100996.59;5078252;28;45451;-77
2023/10/03 03:55:18;;;;;;;;;13.33;12.33;;;;;23.12;61.80;100999.38;5078416;28;45485;-77
2023/10/03 03:57:51;;;;;;;;;16.00;14.00;;;;;23.01;62.30;100991.53;5078657;28;45830;-76
2023/10/03 04:00:22;;;;;;;;;12.00;12.00;;;;;23.05;62.78;101006.59;5046120;28;45375;-77
2023/10/03 04:02:48;;;;;;;;;14.50;14.00;;;;;22.85;62.80;100993.53;5069346;28;45510;-77
2023/10/03 04:05:17;;;;;;;;;14.00;13.33;;;;;22.86;63.21;101000.63;5053693;28;45485;-76
2023/10/03 04:07:44;;;;;;;;;13.00;10.67;;;;;22.86;62.95;101013.03;5077775;28;45325;-76
2023/10/03 04:10:12;;;;;;;;;17.75;15.50;;;;;22.81;62.98;101008.66;5072918;28;45631;-76
2023/10/03 04:12:41;;;;;;;;;14.67;14.33;;;;;22.84;63.30;101005.97;5068868;28;45452;-77
2023/10/03 04:15:15;;;;;;;;;15.67;13.67;;;;;22.83;63.43;101017.50;5070122;28;45542;-77
2023/10/03 04:17:42;;;;;;;;;14.25;12.75;;;;;22.86;63.34;101018.38;5056609;28;45461;-73
2023/10/03 04:22:41;;;;;;;;;16.67;14.67;;;;;22.89;63.35;101016.56;5065141;28;45460;-73
2023/10/03 04:25:13;;;;;;;;;17.33;16.00;;;;;22.97;63.38;101017.34;5055991;28;45543;-73
2023/10/03 04:27:39;;;;;;;;;13.50;13.50;;;;;22.98;63.11;101010.25;5064069;28;45383;-73
2023/10/03 04:30:09;;;;;;;;;14.00;12.33;;;;;23.00;63.60;101021.75;5068608;28;45415;-77
2023/10/03 04:32:34;;;;;;;;;12.33;12.33;;;;;23.07;63.41;101028.78;5067850;27;45445;-76
2023/10/03 04:35:00;;;;;;;;;13.67;13.67;;;;;23.08;63.31;101027.00;5076124;28;45433;-73
2023/10/03 04:37:25;;;;;;;;;16.00;14.00;;;;;23.12;63.56;101029.59;5071975;28;45475;-73
2023/10/03 04:39:51;;;;;;;;;17.33;14.67;;;;;23.00;63.47;101022.63;5058539;28;45343;-73
2023/10/03 04:42:17;;;;;;;;;12.33;12.00;;;;;22.85;63.47;101004.19;5071844;28;45950;-73
2023/10/03 04:44:43;;;;;;;;;15.67;15.67;;;;;22.95;63.72;101037.78;5059822;28;45546;-73
2023/10/03 04:47:11;;;;;;;;;17.25;17.25;;;;;22.83;64.15;101028.16;5063218;28;45416;-73
2023/10/03 04:49:38;;;;;;;;;17.33;17.33;;;;;22.79;64.46;101034.44;5067202;28;45328;-73
2023/10/03 04:52:07;;;;;;;;;14.33;14.00;;;;;22.72;64.15;101035.44;5054472;28;45462;-73
2023/10/03 04:54:33;;;;;;;;;15.75;15.25;;;;;22.69;64.48;101043.44;5061877;28;45604;-73
2023/10/03 04:56:59;;;;;;;;;15.50;14.75;;;;;22.69;64.64;101038.13;5060220;28;45580;-72
2023/10/03 04:59:25;;;;;;;;;13.25;13.25;;;;;22.75;63.79;101034.50;5074189;28;45400;-73
2023/10/03 05:01:51;;;;;;;;;16.00;15.25;;;;;22.80;63.89;101046.88;5057368;28;45612;-73
2023/10/03 05:04:17;;;;;;;;;20.00;16.67;;;;;22.82;63.51;101044.19;5068958;28;45835;-73
2023/10/03 05:06:47;;;;;;;;;16.67;15.33;;;;;22.78;63.86;101056.66;5056164;28;45251;-73
2023/10/03 05:09:13;;;;;;;;;15.33;14.33;;;;;22.74;63.82;101054.03;5039613;28;45335;-73
2023/10/03 05:11:38;;;;;;;;;17.67;14.67;;;;;22.78;64.11;101064.66;5076285;28;45355;-73
2023/10/03 05:14:04;;;;;;;;;16.25;15.75;;;;;22.84;64.16;101080.56;5062828;28;45384;-72
2023/10/03 05:16:29;;;;;;;;;14.25;13.50;;;;;22.90;63.96;101084.94;5058519;28;45477;-73
2023/10/03 05:18:55;;;;;;;;;15.00;13.33;;;;;22.94;63.42;101086.66;5077842;28;45439;-73
2023/10/03 05:21:21;;;;;;;;;15.67;13.67;;;;;22.92;63.32;101066.25;5068037;28;45942;-73
2023/10/03 05:23:47;;;;;;;;;14.33;14.33;;;;;22.99;63.50;101074.13;5057797;28;45338;-73
2023/10/03 05:26:19;;;;;;;;;15.25;15.00;;;;;22.96;63.46;101065.31;5053262;28;45355;-77
2023/10/03 05:28:45;;;;;;;;;16.00;14.00;;;;;22.99;63.67;101070.59;5076702;28;45508;-75
2023/10/03 05:31:14;;;;;;;;;12.33;12.00;;;;;22.96;64.28;101063.53;5076511;28;45852;-76
2023/10/03 05:33:42;;;;;;;;;13.33;11.33;;;;;23.00;63.89;101080.38;5075634;28;45531;-77
2023/10/03 05:36:16;;;;;;;;;14.00;11.67;;;;;22.96;64.13;101075.97;5082601;27;45558;-73
2023/10/03 05:38:42;;;;;;;;;12.33;12.00;;;;;22.97;64.36;101080.41;5076816;27;45669;-73
2023/10/03 05:41:18;;;;;;;;;14.67;11.00;;;;;22.99;63.75;101087.47;5076165;28;46065;-76
2023/10/03 05:43:43;;;;;;;;;13.33;12.33;;;;;22.99;63.84;101078.59;5075202;28;45500;-73
2023/10/03 05:46:11;;;;;;;;;17.00;13.33;;;;;23.08;64.28;101091.84;5074104;28;45496;-76
2023/10/03 05:48:36;;;;;;;;;13.00;12.33;;;;;23.09;63.93;101096.25;5076844;28;45439;-73
2023/10/03 05:51:02;;;;;;;;;14.25;14.25;;;;;23.09;63.62;101098.06;5057968;28;45417;-76
2023/10/03 05:53:30;;;;;;;;;14.67;14.00;;;;;23.14;64.02;101102.44;5075405;28;45427;-76
2023/10/03 05:55:56;;;;;;;;;14.00;12.33;;;;;23.13;63.82;101100.66;5075485;28;46069;-73
2023/10/03 05:58:22;;;;;;;;;15.33;13.33;;;;;23.13;63.73;101100.66;5076450;28;45459;-73
2023/10/03 06:00:49;;;;;;;;;13.67;13.00;;;;;23.10;63.93;101100.72;5075846;28;46049;-73
2023/10/03 06:03:15;;;;;;;;;13.00;12.33;;;;;23.03;63.91;101094.56;5074870;28;45525;-73
2023/10/03 06:05:42;;;;;;;;;13.33;12.33;;;;;23.09;64.00;101100.72;5052026;28;45560;-72
2023/10/03 06:08:12;;;;;;;;;14.33;13.33;;;;;23.16;64.07;101115.75;5064173;27;45334;-73
2023/10/03 06:10:39;;;;;;;;;12.33;10.67;;;;;23.11;63.87;101104.25;5075247;28;45505;-73
2023/10/03 06:13:10;;;;;;;;;14.00;14.00;;;;;23.19;64.26;101107.69;5074776;28;45489;-72
2023/10/03 06:15:43;;;;;;;;;13.50;12.50;;;;;23.14;64.15;101120.16;5074616;28;45520;-73
2023/10/03 06:18:09;;;;;;;;;15.67;13.00;;;;;22.83;64.66;101075.25;5073649;28;45494;-73
2023/10/03 06:20:35;;;;;;;;;14.67;14.00;;;;;22.97;64.55;101125.69;5075973;28;45215;-73
2023/10/03 06:23:02;;;;;;;;;13.33;12.67;;;;;22.97;64.37;101109.72;5057169;28;45405;-73
2023/10/03 06:25:29;;;;;;;;;15.75;14.25;;;;;22.96;64.07;101107.94;5065194;27;45461;-72
2023/10/03 06:27:54;;;;;;;;;14.00;13.33;;;;;23.07;64.05;101116.72;5056425;28;45477;-72
2023/10/03 06:30:20;;;;;;;;;18.00;17.67;;;;;23.12;64.53;101133.53;5054053;28;47050;-75
2023/10/03 06:32:46;;;;;;;;;16.00;14.33;;;;;23.17;64.34;101130.81;5075389;28;45471;-74
2023/10/03 06:35:12;;;;;;;;;15.67;13.67;;;;;23.24;64.61;101140.50;5056685;28;45690;-74
2023/10/03 06:37:38;;;;;;;;;19.67;16.67;;;;;23.16;64.95;101135.28;5073039;28;45324;-77
2023/10/03 06:40:08;;;;;;;;;17.67;17.00;;;;;23.02;64.92;101126.56;5055770;28;47810;-78
2023/10/03 06:42:35;;;;;;;;;18.00;17.75;;;;;23.05;64.61;101142.50;5065080;27;45581;-74
2023/10/03 06:45:01;;;;;;;;;36.50;32.25;;;;;22.94;65.42;101133.72;5072650;28;45588;-73
2023/10/03 06:47:27;;;;;;;;;38.50;33.00;;;;;22.87;65.47;101138.25;5072509;28;45569;-73
2023/10/03 06:49:52;;;;;;;;;58.25;45.25;;;;;22.80;65.60;101149.84;5073903;28;45995;-77
2023/10/03 06:52:18;;;;;;;;;77.50;68.25;;;;;22.70;65.55;101137.53;5054510;28;45400;-77
2023/10/03 06:54:44;;;;;;;;;68.25;53.50;;;;;22.85;65.54;101142.72;5071366;28;45682;-77
2023/10/03 06:57:10;;;;;;;;;52.25;41.75;;;;;23.03;65.40;101168.28;5038695;28;45480;-78
2023/10/03 06:59:36;;;;;;;;;20.50;18.75;;;;;23.00;65.27;101158.53;5075114;28;45342;-77
2023/10/03 07:02:04;;;;;;;;;16.67;16.33;;;;;22.99;65.15;101167.41;5072568;28;45604;-77
2023/10/03 07:04:31;;;;;;;;;16.33;15.33;;;;;23.03;65.43;101173.63;5072725;28;45532;-81
2023/10/03 07:06:56;;;;;;;;;17.33;15.33;;;;;22.96;64.90;101164.78;5082267;27;45507;-78
2023/10/03 07:09:22;;;;;;;;;15.33;15.00;;;;;23.09;65.07;101170.88;5060624;27;47786;-78
2023/10/03 07:11:48;;;;;;;;;17.67;17.33;;;;;23.23;64.90;101189.38;5062503;27;45390;-75
2023/10/03 07:14:15;;;;;;;;;30.00;28.00;;;;;23.11;64.90;101179.72;5083167;27;45618;-76
2023/10/03 07:16:41;;;;;;;;;18.50;18.50;;;;;23.07;64.82;101187.78;5066819;27;45510;-74
2023/10/03 07:19:13;;;;;;;;;17.67;17.33;;;;;23.08;65.15;101197.53;5084307;27;46228;-73
2023/10/03 07:21:39;;;;;;;;;15.00;14.33;;;;;23.11;64.93;101206.38;5086763;27;45476;-78
2023/10/03 07:24:05;;;;;;;;;14.33;14.00;;;;;23.22;64.88;101211.63;5066516;27;45486;-79
2023/10/03 07:26:32;;;;;;;;;16.33;15.33;;;;;23.28;64.32;101216.88;5084010;27;45784;-73
2023/10/03 07:28:59;;;;;;;;;16.33;15.33;;;;;23.30;64.54;101211.50;5070990;27;47950;-74
2023/10/03 07:31:25;;;;;;;;;16.33;14.67;;;;;23.39;64.09;101222.94;5081488;27;45481;-77
2023/10/03 07:33:52;;;;;;;;;20.25;19.50;;;;;23.42;64.26;101214.03;5059361;28;45412;-75
2023/10/03 07:36:18;;;;;;;;;22.25;21.75;;;;;23.48;64.64;101213.06;5074627;28;45475;-74
2023/10/03 07:38:47;;;;;;;;;15.33;14.67;;;;;23.45;65.13;101218.44;5040222;28;45620;-73
2023/10/03 07:41:13;;;;;;;;;13.33;12.67;;;;;23.44;64.78;101222.91;5075414;28;45454;-73
2023/10/03 07:43:47;;;;;;;;;14.00;12.67;;;;;23.33;64.23;101184.81;5047986;28;45438;-74
2023/10/03 07:46:21;;;;;;;;;17.00;17.00;;;;;23.68;63.83;101223.47;5060399;28;45335;-73
2023/10/03 07:48:48;;;;;;;;;16.67;15.67;;;;;23.63;63.20;101213.75;5068925;28;45623;-76
2023/10/03 07:51:17;;;;;;;;;11.33;11.33;;;;;23.80;62.94;101223.34;5076744;28;45524;-74
2023/10/03 07:53:43;;;;;;;;;10.00;8.33;;;;;23.76;61.85;101224.25;5079533;28;45411;-73
2023/10/03 07:56:25;;;;;;;;;10.33;9.00;;;;;23.68;62.25;101199.47;5078851;27;45445;-79
2023/10/03 07:58:55;;;;;;;;;8.67;8.67;;;;;23.93;61.58;101222.25;5076900;27;46625;-78
2023/10/03 08:01:24;;;;;;;;;12.00;10.00;;;;;24.08;61.63;101228.28;5064530;28;45390;-74
2023/10/03 08:03:54;;;;;;;;;10.00;10.00;;;;;24.17;61.18;101230.78;5049917;28;45648;-73
2023/10/03 08:06:27;;;;;;;;;10.00;9.00;;;;;24.26;60.71;101236.00;5066053;28;45532;-79
2023/10/03 08:08:59;;;;;;;;;9.67;8.00;;;;;24.33;60.70;101243.00;5040155;28;49735;-74
2023/10/03 08:11:28;;;;;;;;;12.00;11.33;;;;;24.01;60.80;101171.41;5048996;28;45482;-73
2023/10/03 08:13:58;;;;;;;;;10.00;9.33;;;;;24.45;60.20;101231.22;5078257;28;45507;-76
2023/10/03 08:16:25;;;;;;;;;10.00;9.00;;;;;24.55;59.92;101240.00;5057301;28;45663;-73
2023/10/03 08:18:57;;;;;;;;;9.67;8.00;;;;;24.68;59.70;101249.56;5058369;28;46090;-74
2023/10/03 08:21:29;;;;;;;;;9.67;9.67;;;;;24.76;59.35;101249.44;5058680;28;45501;-75
2023/10/03 08:23:56;;;;;;;;;8.67;8.67;;;;;24.81;59.04;101245.78;5059254;28;45228;-78
2023/10/03 08:26:24;;;;;;;;;8.00;8.00;;;;;24.86;58.19;101253.72;5071139;27;45425;-73
2023/10/03 08:28:59;;;;;;;;;9.00;8.00;;;;;24.95;57.86;101258.03;5058019;28;45482;-74
2023/10/03 08:31:28;;;;;;;;;9.67;8.33;;;;;24.99;57.38;101257.94;5058246;28;45862;-74
2023/10/03 08:33:57;;;;;;;;;9.33;8.67;;;;;24.93;57.55;101233.09;5078899;28;45494;-73
2023/10/03 08:36:27;;;;;;;;;7.33;6.00;;;;;25.18;57.46;101255.78;5074603;27;45486;-73
2023/10/03 08:39:04;;;;;;;;;9.67;8.00;;;;;25.28;57.21;101259.19;5057726;28;45393;-76
2023/10/03 08:41:57;;;;;;;;;8.00;8.00;;;;;25.38;56.93;101260.75;5040878;28;45462;-74
2023/10/03 08:44:24;;;;;;;;;9.00;8.00;;;;;25.50;56.63;101264.97;5070178;28;45498;-73
2023/10/03 08:46:58;;;;;;;;;10.00;9.00;;;;;25.56;56.46;101258.63;5075860;28;45496;-74
2023/10/03 08:49:27;;;;;;;;;8.67;7.67;;;;;25.68;56.74;101260.16;5062985;28;46142;-73
2023/10/03 08:52:01;;;;;;;;;8.33;7.00;;;;;25.78;55.66;101272.44;5076465;28;45615;-74
2023/10/03 08:54:36;;;;;;;;;9.33;9.00;;;;;25.54;55.82;101225.69;5077670;28;45573;-74
2023/10/03 08:57:05;;;;;;;;;11.33;10.67;;;;;25.85;56.28;101271.38;5076874;28;45653;-74
2023/10/03 08:59:31;;;;;;;;;9.00;8.00;;;;;25.91;56.48;101268.59;5072688;27;46324;-74
2023/10/03 09:02:08;;;;;;;;;12.33;10.00;;;;;26.10;56.82;101281.56;5056128;28;45336;-74
2023/10/03 09:04:38;;;;;;;;;10.00;10.00;;;;;26.15;56.02;101268.97;5057539;28;45372;-73
2023/10/03 09:07:10;;;;;;;;;10.33;10.00;;;;;26.28;56.80;101293.66;5070783;28;45594;-73
2023/10/03 09:09:41;;;;;;;;;10.67;9.00;;;;;26.28;55.48;101281.16;5057821;28;46243;-76
2023/10/03 09:12:12;;;;;;;;;8.00;8.00;;;;;26.33;55.05;101281.03;5057510;28;45849;-75
2023/10/03 09:14:38;;;;;;;;;11.33;9.67;;;;;26.43;54.63;101282.59;5054463;28;45493;-74
2023/10/03 09:17:05;;;;;;;;;9.67;8.33;;;;;26.58;54.22;101309.03;5065380;28;45327;-78
2023/10/03 09:19:45;;;;;;;;;7.00;6.67;;;;;26.61;53.80;101313.44;5077415;27;46733;-76
2023/10/03 09:22:15;;;;;;;;;7.33;7.00;;;;;26.71;54.16;101309.59;5077074;28;45370;-74
2023/10/03 09:24:44;;;;;;;;;9.33;7.33;;;;;26.75;53.99;101321.13;5076866;27;45538;-73
2023/10/03 09:27:17;;;;;;;;;10.67;9.33;;;;;26.68;54.38;101319.50;5077066;28;45549;-73
2023/10/03 09:29:45;;;;;;;;;12.00;10.00;;;;;26.67;54.58;101307.94;5077161;28;46623;-74
2023/10/03 09:32:15;;;;;;;;;7.33;7.33;;;;;26.83;55.15;101321.81;5055500;28;45569;-77
2023/10/03 09:34:46;;;;;;;;;11.00;10.00;;;;;26.88;55.16;101319.00;5065232;28;45403;-74
2023/10/03 09:37:13;;;;;;;;;7.67;7.33;;;;;26.92;55.21;101326.09;5077163;28;45470;-73
2023/10/03 09:39:47;;;;;;;;;8.67;8.33;;;;;26.98;54.16;101328.59;5059854;28;46154;-74
2023/10/03 09:42:16;;;;;;;;;8.00;7.67;;;;;26.99;53.96;101333.03;5070383;28;45390;-74
2023/10/03 09:44:48;;;;;;;;;8.00;8.00;;;;;27.00;54.02;101318.72;5056423;28;45606;-74
2023/10/03 09:47:18;;;;;;;;;10.00;10.00;;;;;27.16;53.43;101325.44;5057297;28;45520;-75
2023/10/03 09:49:47;;;;;;;;;7.00;6.33;;;;;27.18;53.51;101315.53;5072869;28;45399;-74
2023/10/03 09:52:33;;;;;;;;;11.00;10.33;;;;;27.23;52.93;101315.41;5057009;28;45494;-74
2023/10/03 09:55:03;;;;;;;;;11.00;10.00;;;;;27.38;52.79;101317.72;5071149;28;45528;-74
2023/10/03 09:57:29;;;;;;;;;9.33;8.33;;;;;27.53;52.43;101315.50;5072178;27;45600;-74
2023/10/03 09:59:56;;;;;;;;;11.67;11.00;;;;;27.67;52.16;101332.09;5063289;28;46183;-76
2023/10/03 10:02:31;;;;;;;;;12.00;11.67;;;;;27.65;51.78;101325.91;5054326;28;45528;-74
2023/10/03 10:05:21;;;;;;;;;9.00;8.67;;;;;27.64;52.35;101334.88;5057621;28;45504;-79
2023/10/03 10:08:06;;;;;;;;;8.00;7.00;;;;;27.81;51.15;101328.13;5069073;28;45505;-77
2023/10/03 10:10:34;;;;;;;;;12.67;12.33;;;;;27.98;50.46;101343.81;5075067;28;45405;-78
2023/10/03 10:13:23;;;;;;;;;15.33;14.33;;;;;28.20;50.29;101339.53;5075654;28;45388;-76
2023/10/03 10:16:01;;;;;;;;;12.33;8.33;;;;;28.40;50.21;101346.09;5074215;28;45414;-77
2023/10/03 10:18:45;;;;;;;;;8.67;8.00;;;;;28.71;49.42;101341.50;5058107;28;45386;-76
2023/10/03 10:21:31;;;;;;;;;7.00;6.67;;;;;28.86;48.85;101328.47;5065550;28;46077;-74
2023/10/03 10:24:25;;;;;;;;;13.00;10.67;;;;;29.04;47.51;101286.63;5076281;28;45319;-79
2023/10/03 10:26:52;;;;;;;;;10.00;9.00;;;;;29.55;46.80;101336.84;5073634;27;45989;-75
2023/10/03 10:29:24;;;;;;;;;6.00;5.67;;;;;29.77;46.61;101336.09;5065143;28;45482;-75
2023/10/03 10:31:57;;;;;;;;;9.00;9.00;;;;;29.96;46.82;101336.25;5055796;28;46277;-76
2023/10/03 10:34:30;;;;;;;;;10.00;8.00;;;;;30.16;46.26;101341.72;5076195;27;45319;-74
2023/10/03 10:37:02;;;;;;;;;10.33;10.00;;;;;29.96;46.53;101342.50;5076617;28;45521;-79
2023/10/03 10:40:09;;;;;;;;;10.00;9.00;;;;;30.09;46.21;101341.09;5076266;28;45433;-78
2023/10/03 10:42:56;;;;;;;;;10.67;10.33;;;;;30.24;46.56;101341.41;5067365;28;46041;-79
2023/10/03 10:45:22;;;;;;;;;11.00;9.33;;;;;30.30;46.55;101335.78;5072062;28;45589;-74
2023/10/03 10:47:54;;;;;;;;;10.00;9.00;;;;;30.44;46.78;101343.34;5073827;28;45896;-77
2023/10/03 10:50:26;;;;;;;;;8.67;8.00;;;;;30.55;45.86;101343.81;5073971;28;45473;-74
2023/10/03 10:53:05;;;;;;;;;9.00;9.00;;;;;30.66;45.35;101348.75;5074370;28;46098;-75
2023/10/03 10:55:33;;;;;;;;;6.33;6.00;;;;;30.84;44.86;101344.41;5073977;28;45432;-75
2023/10/03 10:58:12;;;;;;;;;9.67;8.67;;;;;30.90;43.90;101334.28;5075410;28;45456;-76
2023/10/03 11:00:39;;;;;;;;;9.00;9.00;;;;;31.01;43.47;101331.09;5050153;28;45373;-80
2023/10/03 11:03:07;;;;;;;;;11.00;8.00;;;;;31.04;43.98;101333.69;5063823;28;45485;-73
2023/10/03 11:05:47;;;;;;;;;7.33;7.33;;;;;30.93;43.48;101327.88;5063095;28;45609;-75
2023/10/03 11:08:14;;;;;;;;;9.00;8.00;;;;;30.94;43.44;101345.81;5054957;28;45896;-75
2023/10/03 11:10:49;;;;;;;;;8.33;8.00;;;;;31.00;43.67;101344.66;5065473;28;45543;-74
2023/10/03 11:13:15;;;;;;;;;12.00;11.00;;;;;31.04;43.86;101352.56;5075513;28;46019;-80
2023/10/03 11:15:49;;;;;;;;;10.33;10.00;;;;;30.99;42.83;101341.09;5041221;28;45886;-74
2023/10/03 11:18:16;;;;;;;;;7.67;7.33;;;;;31.03;43.07;101344.53;5066674;28;45438;-74
2023/10/03 11:20:41;;;;;;;;;9.67;8.00;;;;;30.99;42.89;101353.72;5069380;28;45442;-80
2023/10/03 11:23:25;;;;;;;;;8.67;8.67;;;;;30.65;44.23;101355.09;5073060;28;46170;-74
2023/10/03 11:25:59;;;;;;;;;9.00;8.67;;;;;30.33;46.21;101366.22;5048313;27;45415;-74
2023/10/03 11:28:28;;;;;;;;;13.67;11.00;;;;;29.61;48.24;101374.31;5079527;28;45336;-75
2023/10/03 11:31:04;;;;;;;;;9.67;8.33;;;;;29.41;49.49;101375.03;5063080;28;45272;-74
2023/10/03 11:33:46;;;;;;;;;10.00;10.00;;;;;29.06;50.23;101382.47;5079284;27;46043;-74